sensor_id;sensor_type;location;lat;lon;timestamp;temperature;humidity
22787;DHT22;63134;52.020;4.714;2023-07-02T00:01:54;17.60;90.00
22787;DHT22;63134;52.020;4.714;2023-07-02T00:04:40;17.60;89.80
22787;DHT22;63134;52.020;4.714;2023-07-02T00:07:25;17.50;89.40
22787;DHT22;63134;52.020;4.714;2023-07-02T00:10:11;17.40;89.20
22787;DHT22;63134;52.020;4.714;2023-07-02T00:12:57;17.40;88.60
22787;DHT22;63134;52.020;4.714;2023-07-02T00:15:46;17.40;88.10
22787;DHT22;63134;52.020;4.714;2023-07-02T00:18:31;17.30;87.80
22787;DHT22;63134;52.020;4.714;2023-07-02T00:21:19;17.30;87.20
22787;DHT22;63134;52.020;4.714;2023-07-02T00:24:07;17.20;86.40
22787;DHT22;63134;52.020;4.714;2023-07-02T00:26:54;17.10;86.00
22787;DHT22;63134;52.020;4.714;2023-07-02T00:29:40;17.10;86.00
22787;DHT22;63134;52.020;4.714;2023-07-02T00:32:26;17.00;86.00
22787;DHT22;63134;52.020;4.714;2023-07-02T00:35:12;17.00;86.00
22787;DHT22;63134;52.020;4.714;2023-07-02T00:37:58;17.00;86.00
22787;DHT22;63134;52.020;4.714;2023-07-02T00:40:44;17.00;85.70
22787;DHT22;63134;52.020;4.714;2023-07-02T00:43:31;16.90;85.50
22787;DHT22;63134;52.020;4.714;2023-07-02T00:46:18;16.90;85.80
22787;DHT22;63134;52.020;4.714;2023-07-02T00:49:08;16.80;86.00
22787;DHT22;63134;52.020;4.714;2023-07-02T00:51:55;16.80;86.20
22787;DHT22;63134;52.020;4.714;2023-07-02T00:54:41;16.90;86.30
22787;DHT22;63134;52.020;4.714;2023-07-02T00:57:27;16.80;86.10
22787;DHT22;63134;52.020;4.714;2023-07-02T01:00:15;16.80;87.00
22787;DHT22;63134;52.020;4.714;2023-07-02T01:03:01;16.90;86.30
22787;DHT22;63134;52.020;4.714;2023-07-02T01:05:48;16.90;86.50
22787;DHT22;63134;52.020;4.714;2023-07-02T01:08:33;16.90;86.20
22787;DHT22;63134;52.020;4.714;2023-07-02T01:11:20;17.00;86.00
22787;DHT22;63134;52.020;4.714;2023-07-02T01:14:18;17.00;85.00
22787;DHT22;63134;52.020;4.714;2023-07-02T01:17:09;17.00;84.80
22787;DHT22;63134;52.020;4.714;2023-07-02T01:19:57;16.90;85.00
22787;DHT22;63134;52.020;4.714;2023-07-02T01:22:48;17.00;84.20
22787;DHT22;63134;52.020;4.714;2023-07-02T01:25:36;16.90;83.80
22787;DHT22;63134;52.020;4.714;2023-07-02T01:28:23;16.90;82.50
22787;DHT22;63134;52.020;4.714;2023-07-02T01:31:10;16.90;81.60
22787;DHT22;63134;52.020;4.714;2023-07-02T01:33:55;16.90;81.20
22787;DHT22;63134;52.020;4.714;2023-07-02T01:36:41;16.90;80.50
22787;DHT22;63134;52.020;4.714;2023-07-02T01:39:27;16.90;79.80
22787;DHT22;63134;52.020;4.714;2023-07-02T01:42:18;16.80;79.70
22787;DHT22;63134;52.020;4.714;2023-07-02T01:45:04;16.70;79.10
22787;DHT22;63134;52.020;4.714;2023-07-02T01:47:50;16.70;78.90
22787;DHT22;63134;52.020;4.714;2023-07-02T01:50:39;16.60;78.90
22787;DHT22;63134;52.020;4.714;2023-07-02T01:53:24;16.50;79.40
22787;DHT22;63134;52.020;4.714;2023-07-02T01:56:10;16.40;79.00
22787;DHT22;63134;52.020;4.714;2023-07-02T01:58:56;16.40;79.30
22787;DHT22;63134;52.020;4.714;2023-07-02T02:01:41;16.40;79.30
22787;DHT22;63134;52.020;4.714;2023-07-02T02:04:27;16.30;79.60
22787;DHT22;63134;52.020;4.714;2023-07-02T02:07:16;16.30;79.40
22787;DHT22;63134;52.020;4.714;2023-07-02T02:10:03;16.20;79.50
22787;DHT22;63134;52.020;4.714;2023-07-02T02:12:49;16.20;79.50
22787;DHT22;63134;52.020;4.714;2023-07-02T02:15:35;16.10;79.80
22787;DHT22;63134;52.020;4.714;2023-07-02T02:18:20;16.00;79.80
22787;DHT22;63134;52.020;4.714;2023-07-02T02:21:10;16.00;80.20
22787;DHT22;63134;52.020;4.714;2023-07-02T02:23:57;16.00;80.50
22787;DHT22;63134;52.020;4.714;2023-07-02T02:26:44;15.90;80.80
22787;DHT22;63134;52.020;4.714;2023-07-02T02:29:30;15.90;80.90
22787;DHT22;63134;52.020;4.714;2023-07-02T02:32:15;15.90;80.60
22787;DHT22;63134;52.020;4.714;2023-07-02T02:35:07;16.00;80.80
22787;DHT22;63134;52.020;4.714;2023-07-02T02:37:54;16.00;80.60
22787;DHT22;63134;52.020;4.714;2023-07-02T02:40:40;16.00;80.60
22787;DHT22;63134;52.020;4.714;2023-07-02T02:43:28;16.10;80.50
22787;DHT22;63134;52.020;4.714;2023-07-02T02:46:20;16.20;80.20
22787;DHT22;63134;52.020;4.714;2023-07-02T02:49:06;16.20;80.00
22787;DHT22;63134;52.020;4.714;2023-07-02T02:51:55;16.20;79.80
22787;DHT22;63134;52.020;4.714;2023-07-02T02:54:43;16.30;79.60
22787;DHT22;63134;52.020;4.714;2023-07-02T02:57:29;16.30;79.30
22787;DHT22;63134;52.020;4.714;2023-07-02T03:00:15;16.40;78.70
22787;DHT22;63134;52.020;4.714;2023-07-02T03:03:02;16.40;78.10
22787;DHT22;63134;52.020;4.714;2023-07-02T03:05:48;16.40;78.20
22787;DHT22;63134;52.020;4.714;2023-07-02T03:08:34;16.30;78.40
22787;DHT22;63134;52.020;4.714;2023-07-02T03:11:19;16.20;78.50
22787;DHT22;63134;52.020;4.714;2023-07-02T03:14:05;16.10;79.10
22787;DHT22;63134;52.020;4.714;2023-07-02T03:16:51;16.10;79.40
22787;DHT22;63134;52.020;4.714;2023-07-02T03:19:40;16.00;79.20
22787;DHT22;63134;52.020;4.714;2023-07-02T03:22:26;16.00;79.60
22787;DHT22;63134;52.020;4.714;2023-07-02T03:25:12;16.00;79.60
22787;DHT22;63134;52.020;4.714;2023-07-02T03:27:57;16.00;80.00
22787;DHT22;63134;52.020;4.714;2023-07-02T03:30:43;15.90;80.10
22787;DHT22;63134;52.020;4.714;2023-07-02T03:33:29;15.80;80.20
22787;DHT22;63134;52.020;4.714;2023-07-02T03:36:14;15.80;80.50
22787;DHT22;63134;52.020;4.714;2023-07-02T03:39:00;15.80;81.00
22787;DHT22;63134;52.020;4.714;2023-07-02T03:41:45;15.70;81.20
22787;DHT22;63134;52.020;4.714;2023-07-02T03:44:31;15.70;81.60
22787;DHT22;63134;52.020;4.714;2023-07-02T03:47:20;15.70;81.90
22787;DHT22;63134;52.020;4.714;2023-07-02T03:50:08;15.70;81.90
22787;DHT22;63134;52.020;4.714;2023-07-02T03:52:54;15.70;81.90
22787;DHT22;63134;52.020;4.714;2023-07-02T03:55:40;15.80;82.00
22787;DHT22;63134;52.020;4.714;2023-07-02T03:58:26;15.80;81.30
22787;DHT22;63134;52.020;4.714;2023-07-02T04:01:12;15.80;81.30
22787;DHT22;63134;52.020;4.714;2023-07-02T04:04:01;15.80;81.60
22787;DHT22;63134;52.020;4.714;2023-07-02T04:06:46;15.80;81.70
22787;DHT22;63134;52.020;4.714;2023-07-02T04:09:42;15.80;81.80
22787;DHT22;63134;52.020;4.714;2023-07-02T04:12:28;15.90;81.70
22787;DHT22;63134;52.020;4.714;2023-07-02T04:15:15;15.80;81.40
22787;DHT22;63134;52.020;4.714;2023-07-02T04:18:01;15.90;81.00
22787;DHT22;63134;52.020;4.714;2023-07-02T04:20:47;16.00;80.60
22787;DHT22;63134;52.020;4.714;2023-07-02T04:23:33;16.10;80.00
22787;DHT22;63134;52.020;4.714;2023-07-02T04:26:18;16.20;79.90
22787;DHT22;63134;52.020;4.714;2023-07-02T04:29:24;16.20;79.70
22787;DHT22;63134;52.020;4.714;2023-07-02T04:32:10;16.30;79.50
22787;DHT22;63134;52.020;4.714;2023-07-02T04:34:55;16.40;79.50
22787;DHT22;63134;52.020;4.714;2023-07-02T04:37:44;16.40;78.90
22787;DHT22;63134;52.020;4.714;2023-07-02T04:40:33;16.50;79.00
22787;DHT22;63134;52.020;4.714;2023-07-02T04:43:19;16.50;79.40
22787;DHT22;63134;52.020;4.714;2023-07-02T04:46:07;16.40;78.50
22787;DHT22;63134;52.020;4.714;2023-07-02T04:48:54;16.40;78.50
22787;DHT22;63134;52.020;4.714;2023-07-02T04:51:44;16.50;78.10
22787;DHT22;63134;52.020;4.714;2023-07-02T04:54:29;16.50;78.10
22787;DHT22;63134;52.020;4.714;2023-07-02T04:57:15;16.60;77.80
22787;DHT22;63134;52.020;4.714;2023-07-02T05:00:00;16.50;77.80
22787;DHT22;63134;52.020;4.714;2023-07-02T05:02:46;16.60;77.50
22787;DHT22;63134;52.020;4.714;2023-07-02T05:05:33;16.60;77.90
22787;DHT22;63134;52.020;4.714;2023-07-02T05:08:19;16.60;77.90
22787;DHT22;63134;52.020;4.714;2023-07-02T05:11:04;16.60;78.00
22787;DHT22;63134;52.020;4.714;2023-07-02T05:13:52;16.70;77.00
22787;DHT22;63134;52.020;4.714;2023-07-02T05:16:38;16.70;76.50
22787;DHT22;63134;52.020;4.714;2023-07-02T05:19:24;16.70;76.80
22787;DHT22;63134;52.020;4.714;2023-07-02T05:22:10;16.70;77.10
22787;DHT22;63134;52.020;4.714;2023-07-02T05:24:55;16.70;76.70
22787;DHT22;63134;52.020;4.714;2023-07-02T05:27:41;16.80;76.80
22787;DHT22;63134;52.020;4.714;2023-07-02T05:30:27;16.80;76.60
22787;DHT22;63134;52.020;4.714;2023-07-02T05:33:15;16.90;76.60
22787;DHT22;63134;52.020;4.714;2023-07-02T05:36:04;16.90;76.40
22787;DHT22;63134;52.020;4.714;2023-07-02T05:38:50;17.00;76.30
22787;DHT22;63134;52.020;4.714;2023-07-02T05:41:36;17.10;75.60
22787;DHT22;63134;52.020;4.714;2023-07-02T05:44:21;17.30;74.80
22787;DHT22;63134;52.020;4.714;2023-07-02T05:47:06;17.30;74.40
22787;DHT22;63134;52.020;4.714;2023-07-02T05:49:52;17.50;74.30
22787;DHT22;63134;52.020;4.714;2023-07-02T05:52:37;17.70;74.10
22787;DHT22;63134;52.020;4.714;2023-07-02T05:55:23;18.00;72.80
22787;DHT22;63134;52.020;4.714;2023-07-02T05:58:09;18.10;71.30
22787;DHT22;63134;52.020;4.714;2023-07-02T06:00:55;18.30;69.90
22787;DHT22;63134;52.020;4.714;2023-07-02T06:03:40;18.50;69.20
22787;DHT22;63134;52.020;4.714;2023-07-02T06:06:26;18.70;68.60
22787;DHT22;63134;52.020;4.714;2023-07-02T06:09:11;18.80;68.10
22787;DHT22;63134;52.020;4.714;2023-07-02T06:11:58;18.80;66.70
22787;DHT22;63134;52.020;4.714;2023-07-02T06:14:44;18.80;66.70
22787;DHT22;63134;52.020;4.714;2023-07-02T06:17:30;18.70;67.60
22787;DHT22;63134;52.020;4.714;2023-07-02T06:20:21;18.60;68.30
22787;DHT22;63134;52.020;4.714;2023-07-02T06:23:06;18.50;68.30
22787;DHT22;63134;52.020;4.714;2023-07-02T06:25:52;18.30;68.70
22787;DHT22;63134;52.020;4.714;2023-07-02T06:28:46;18.30;69.00
22787;DHT22;63134;52.020;4.714;2023-07-02T06:31:33;18.20;68.90
22787;DHT22;63134;52.020;4.714;2023-07-02T06:34:19;18.30;68.30
22787;DHT22;63134;52.020;4.714;2023-07-02T06:37:05;18.30;67.70
22787;DHT22;63134;52.020;4.714;2023-07-02T06:39:50;18.30;67.20
22787;DHT22;63134;52.020;4.714;2023-07-02T06:42:36;18.20;67.00
22787;DHT22;63134;52.020;4.714;2023-07-02T06:45:22;18.10;66.90
22787;DHT22;63134;52.020;4.714;2023-07-02T06:48:07;18.10;67.30
22787;DHT22;63134;52.020;4.714;2023-07-02T06:50:53;18.00;66.00
22787;DHT22;63134;52.020;4.714;2023-07-02T06:53:38;18.00;67.20
22787;DHT22;63134;52.020;4.714;2023-07-02T06:56:24;18.00;66.00
22787;DHT22;63134;52.020;4.714;2023-07-02T06:59:10;18.00;64.30
22787;DHT22;63134;52.020;4.714;2023-07-02T07:01:56;17.90;65.00
22787;DHT22;63134;52.020;4.714;2023-07-02T07:04:42;18.00;65.20
22787;DHT22;63134;52.020;4.714;2023-07-02T07:07:27;18.00;64.50
22787;DHT22;63134;52.020;4.714;2023-07-02T07:10:13;18.10;62.90
22787;DHT22;63134;52.020;4.714;2023-07-02T07:12:58;18.10;63.00
22787;DHT22;63134;52.020;4.714;2023-07-02T07:15:44;18.20;63.20
22787;DHT22;63134;52.020;4.714;2023-07-02T07:18:29;18.20;63.70
22787;DHT22;63134;52.020;4.714;2023-07-02T07:21:17;18.20;63.60
22787;DHT22;63134;52.020;4.714;2023-07-02T07:24:03;18.20;63.30
22787;DHT22;63134;52.020;4.714;2023-07-02T07:26:49;18.20;63.50
22787;DHT22;63134;52.020;4.714;2023-07-02T07:29:34;18.30;63.50
22787;DHT22;63134;52.020;4.714;2023-07-02T07:32:21;18.50;63.40
22787;DHT22;63134;52.020;4.714;2023-07-02T07:35:08;18.50;62.50
22787;DHT22;63134;52.020;4.714;2023-07-02T07:37:53;18.40;62.60
22787;DHT22;63134;52.020;4.714;2023-07-02T07:40:41;18.50;62.60
22787;DHT22;63134;52.020;4.714;2023-07-02T07:43:27;18.50;62.20
22787;DHT22;63134;52.020;4.714;2023-07-02T07:46:13;18.60;61.60
22787;DHT22;63134;52.020;4.714;2023-07-02T07:48:59;18.70;59.80
22787;DHT22;63134;52.020;4.714;2023-07-02T07:51:44;18.70;58.50
22787;DHT22;63134;52.020;4.714;2023-07-02T07:54:30;18.80;58.30
22787;DHT22;63134;52.020;4.714;2023-07-02T07:57:16;18.70;58.30
22787;DHT22;63134;52.020;4.714;2023-07-02T08:00:05;18.70;59.20
22787;DHT22;63134;52.020;4.714;2023-07-02T08:03:02;18.70;59.80
22787;DHT22;63134;52.020;4.714;2023-07-02T08:05:49;18.80;59.60
22787;DHT22;63134;52.020;4.714;2023-07-02T08:08:34;18.90;59.40
22787;DHT22;63134;52.020;4.714;2023-07-02T08:11:20;19.10;58.70
22787;DHT22;63134;52.020;4.714;2023-07-02T08:14:05;19.20;58.20
22787;DHT22;63134;52.020;4.714;2023-07-02T08:16:51;19.20;58.40
22787;DHT22;63134;52.020;4.714;2023-07-02T08:19:37;19.10;59.10
22787;DHT22;63134;52.020;4.714;2023-07-02T08:22:22;19.10;57.70
22787;DHT22;63134;52.020;4.714;2023-07-02T08:25:07;18.90;58.00
22787;DHT22;63134;52.020;4.714;2023-07-02T08:27:53;19.00;58.20
22787;DHT22;63134;52.020;4.714;2023-07-02T08:30:38;19.10;58.60
22787;DHT22;63134;52.020;4.714;2023-07-02T08:33:23;19.20;57.60
22787;DHT22;63134;52.020;4.714;2023-07-02T08:36:09;19.20;56.80
22787;DHT22;63134;52.020;4.714;2023-07-02T08:38:55;19.50;57.40
22787;DHT22;63134;52.020;4.714;2023-07-02T08:41:42;19.60;57.50
22787;DHT22;63134;52.020;4.714;2023-07-02T08:44:29;19.70;56.50
22787;DHT22;63134;52.020;4.714;2023-07-02T08:47:16;19.80;55.20
22787;DHT22;63134;52.020;4.714;2023-07-02T08:50:03;19.90;54.50
22787;DHT22;63134;52.020;4.714;2023-07-02T08:52:50;19.80;54.40
22787;DHT22;63134;52.020;4.714;2023-07-02T08:55:35;19.80;54.60
22787;DHT22;63134;52.020;4.714;2023-07-02T08:58:22;19.90;54.10
22787;DHT22;63134;52.020;4.714;2023-07-02T09:01:12;19.80;53.70
22787;DHT22;63134;52.020;4.714;2023-07-02T09:03:58;19.80;54.60
22787;DHT22;63134;52.020;4.714;2023-07-02T09:06:47;20.00;54.40
22787;DHT22;63134;52.020;4.714;2023-07-02T09:09:33;20.10;53.80
22787;DHT22;63134;52.020;4.714;2023-07-02T09:12:30;20.10;53.40
22787;DHT22;63134;52.020;4.714;2023-07-02T09:15:20;20.10;52.90
22787;DHT22;63134;52.020;4.714;2023-07-02T09:18:19;20.00;52.70
22787;DHT22;63134;52.020;4.714;2023-07-02T09:21:05;19.80;52.40
22787;DHT22;63134;52.020;4.714;2023-07-02T09:23:51;19.80;53.10
22787;DHT22;63134;52.020;4.714;2023-07-02T09:26:37;19.90;52.70
22787;DHT22;63134;52.020;4.714;2023-07-02T09:29:27;19.90;53.00
22787;DHT22;63134;52.020;4.714;2023-07-02T09:32:34;20.00;51.30
22787;DHT22;63134;52.020;4.714;2023-07-02T09:35:20;20.10;51.30
22787;DHT22;63134;52.020;4.714;2023-07-02T09:38:08;20.20;51.90
22787;DHT22;63134;52.020;4.714;2023-07-02T09:40:55;20.20;51.80
22787;DHT22;63134;52.020;4.714;2023-07-02T09:43:42;20.30;51.20
22787;DHT22;63134;52.020;4.714;2023-07-02T09:46:28;20.50;49.90
22787;DHT22;63134;52.020;4.714;2023-07-02T09:49:17;20.50;49.30
22787;DHT22;63134;52.020;4.714;2023-07-02T09:52:08;20.50;49.40
22787;DHT22;63134;52.020;4.714;2023-07-02T09:54:59;20.50;48.70
22787;DHT22;63134;52.020;4.714;2023-07-02T09:57:45;20.60;48.50
22787;DHT22;63134;52.020;4.714;2023-07-02T10:00:31;20.70;48.00
22787;DHT22;63134;52.020;4.714;2023-07-02T10:03:17;20.90;48.20
22787;DHT22;63134;52.020;4.714;2023-07-02T10:06:06;21.10;48.60
22787;DHT22;63134;52.020;4.714;2023-07-02T10:08:53;21.10;47.70
22787;DHT22;63134;52.020;4.714;2023-07-02T10:11:39;21.20;47.10
22787;DHT22;63134;52.020;4.714;2023-07-02T10:14:25;21.20;46.00
22787;DHT22;63134;52.020;4.714;2023-07-02T10:20:14;21.30;46.40
22787;DHT22;63134;52.020;4.714;2023-07-02T10:23:02;21.30;47.10
22787;DHT22;63134;52.020;4.714;2023-07-02T10:25:48;21.60;47.00
22787;DHT22;63134;52.020;4.714;2023-07-02T10:28:34;21.80;44.50
22787;DHT22;63134;52.020;4.714;2023-07-02T10:31:20;22.00;44.60
22787;DHT22;63134;52.020;4.714;2023-07-02T10:34:06;22.00;45.40
22787;DHT22;63134;52.020;4.714;2023-07-02T10:36:55;22.10;45.90
22787;DHT22;63134;52.020;4.714;2023-07-02T10:39:41;22.40;45.20
22787;DHT22;63134;52.020;4.714;2023-07-02T10:42:26;22.60;43.50
22787;DHT22;63134;52.020;4.714;2023-07-02T10:45:13;22.70;42.40
22787;DHT22;63134;52.020;4.714;2023-07-02T10:48:00;22.60;41.40
22787;DHT22;63134;52.020;4.714;2023-07-02T10:50:49;22.70;41.40
22787;DHT22;63134;52.020;4.714;2023-07-02T10:53:35;23.00;40.50
22787;DHT22;63134;52.020;4.714;2023-07-02T10:56:20;23.00;40.70
22787;DHT22;63134;52.020;4.714;2023-07-02T10:59:06;23.10;40.90
22787;DHT22;63134;52.020;4.714;2023-07-02T11:01:51;23.10;40.90
22787;DHT22;63134;52.020;4.714;2023-07-02T11:04:37;23.30;40.40
22787;DHT22;63134;52.020;4.714;2023-07-02T11:07:23;23.40;40.50
22787;DHT22;63134;52.020;4.714;2023-07-02T11:10:10;23.50;40.60
22787;DHT22;63134;52.020;4.714;2023-07-02T11:12:55;23.70;40.40
22787;DHT22;63134;52.020;4.714;2023-07-02T11:15:41;23.90;39.50
22787;DHT22;63134;52.020;4.714;2023-07-02T11:18:30;24.10;39.00
22787;DHT22;63134;52.020;4.714;2023-07-02T11:21:17;24.10;37.70
22787;DHT22;63134;52.020;4.714;2023-07-02T11:24:05;24.10;38.70
22787;DHT22;63134;52.020;4.714;2023-07-02T11:26:50;24.20;39.50
22787;DHT22;63134;52.020;4.714;2023-07-02T11:29:36;24.50;39.10
22787;DHT22;63134;52.020;4.714;2023-07-02T11:32:22;24.40;38.80
22787;DHT22;63134;52.020;4.714;2023-07-02T11:35:08;24.30;38.60
22787;DHT22;63134;52.020;4.714;2023-07-02T11:37:53;24.40;39.70
22787;DHT22;63134;52.020;4.714;2023-07-02T11:40:42;24.90;39.80
22787;DHT22;63134;52.020;4.714;2023-07-02T11:43:27;25.70;39.40
22787;DHT22;63134;52.020;4.714;2023-07-02T11:46:13;26.50;38.30
22787;DHT22;63134;52.020;4.714;2023-07-02T11:49:03;26.80;36.20
22787;DHT22;63134;52.020;4.714;2023-07-02T11:51:55;26.70;35.90
22787;DHT22;63134;52.020;4.714;2023-07-02T11:54:50;26.90;36.70
22787;DHT22;63134;52.020;4.714;2023-07-02T11:57:35;27.60;35.40
22787;DHT22;63134;52.020;4.714;2023-07-02T12:00:23;28.10;32.90
22787;DHT22;63134;52.020;4.714;2023-07-02T12:03:10;27.30;33.30
22787;DHT22;63134;52.020;4.714;2023-07-02T12:05:57;27.00;35.60
22787;DHT22;63134;52.020;4.714;2023-07-02T12:08:42;27.00;34.90
22787;DHT22;63134;52.020;4.714;2023-07-02T12:11:31;26.50;35.40
22787;DHT22;63134;52.020;4.714;2023-07-02T12:14:17;26.20;36.10
22787;DHT22;63134;52.020;4.714;2023-07-02T12:17:03;26.10;36.40
22787;DHT22;63134;52.020;4.714;2023-07-02T12:19:49;27.60;34.70
22787;DHT22;63134;52.020;4.714;2023-07-02T12:22:35;28.60;33.60
22787;DHT22;63134;52.020;4.714;2023-07-02T12:25:20;29.30;32.10
22787;DHT22;63134;52.020;4.714;2023-07-02T12:28:08;30.60;32.50
22787;DHT22;63134;52.020;4.714;2023-07-02T12:30:57;31.80;29.70
22787;DHT22;63134;52.020;4.714;2023-07-02T12:33:43;32.70;28.90
22787;DHT22;63134;52.020;4.714;2023-07-02T12:36:28;32.80;28.30
22787;DHT22;63134;52.020;4.714;2023-07-02T12:39:14;33.30;27.30
22787;DHT22;63134;52.020;4.714;2023-07-02T12:42:03;34.20;27.40
22787;DHT22;63134;52.020;4.714;2023-07-02T12:44:49;34.70;25.90
22787;DHT22;63134;52.020;4.714;2023-07-02T12:47:34;34.90;25.90
22787;DHT22;63134;52.020;4.714;2023-07-02T12:50:20;35.00;25.20
22787;DHT22;63134;52.020;4.714;2023-07-02T12:53:06;35.30;25.10
22787;DHT22;63134;52.020;4.714;2023-07-02T12:55:51;35.80;25.00
22787;DHT22;63134;52.020;4.714;2023-07-02T12:58:39;36.00;24.40
22787;DHT22;63134;52.020;4.714;2023-07-02T13:01:24;35.90;24.20
22787;DHT22;63134;52.020;4.714;2023-07-02T13:04:13;36.00;24.00
22787;DHT22;63134;52.020;4.714;2023-07-02T13:07:01;35.90;24.10
22787;DHT22;63134;52.020;4.714;2023-07-02T13:09:46;35.80;23.80
22787;DHT22;63134;52.020;4.714;2023-07-02T13:12:32;35.80;24.70
22787;DHT22;63134;52.020;4.714;2023-07-02T13:15:17;35.30;23.50
22787;DHT22;63134;52.020;4.714;2023-07-02T13:18:07;35.40;23.60
22787;DHT22;63134;52.020;4.714;2023-07-02T13:20:54;36.30;23.20
22787;DHT22;63134;52.020;4.714;2023-07-02T13:23:41;36.00;22.90
22787;DHT22;63134;52.020;4.714;2023-07-02T13:26:26;36.30;23.80
22787;DHT22;63134;52.020;4.714;2023-07-02T13:29:12;36.90;23.00
22787;DHT22;63134;52.020;4.714;2023-07-02T13:31:58;36.40;23.10
22787;DHT22;63134;52.020;4.714;2023-07-02T13:34:43;35.70;24.00
22787;DHT22;63134;52.020;4.714;2023-07-02T13:37:29;35.10;24.20
22787;DHT22;63134;52.020;4.714;2023-07-02T13:40:14;35.00;25.60
22787;DHT22;63134;52.020;4.714;2023-07-02T13:43:03;36.30;24.50
22787;DHT22;63134;52.020;4.714;2023-07-02T13:45:49;35.70;23.80
22787;DHT22;63134;52.020;4.714;2023-07-02T13:48:35;35.70;22.70
22787;DHT22;63134;52.020;4.714;2023-07-02T13:51:21;34.20;23.50
22787;DHT22;63134;52.020;4.714;2023-07-02T13:54:06;33.20;25.00
22787;DHT22;63134;52.020;4.714;2023-07-02T13:56:52;33.60;24.10
22787;DHT22;63134;52.020;4.714;2023-07-02T13:59:38;32.10;24.40
22787;DHT22;63134;52.020;4.714;2023-07-02T14:02:24;31.70;25.80
22787;DHT22;63134;52.020;4.714;2023-07-02T14:05:10;32.40;25.80
22787;DHT22;63134;52.020;4.714;2023-07-02T14:07:55;32.70;25.20
22787;DHT22;63134;52.020;4.714;2023-07-02T14:10:41;32.70;25.40
22787;DHT22;63134;52.020;4.714;2023-07-02T14:13:27;34.00;24.60
22787;DHT22;63134;52.020;4.714;2023-07-02T14:16:15;34.10;24.60
22787;DHT22;63134;52.020;4.714;2023-07-02T14:19:01;33.60;24.90
22787;DHT22;63134;52.020;4.714;2023-07-02T14:21:47;34.40;25.00
22787;DHT22;63134;52.020;4.714;2023-07-02T14:24:35;35.10;24.00
22787;DHT22;63134;52.020;4.714;2023-07-02T14:27:20;34.90;23.00
22787;DHT22;63134;52.020;4.714;2023-07-02T14:30:06;34.20;23.70
22787;DHT22;63134;52.020;4.714;2023-07-02T14:32:54;34.70;24.00
22787;DHT22;63134;52.020;4.714;2023-07-02T14:35:41;34.40;23.40
22787;DHT22;63134;52.020;4.714;2023-07-02T14:38:29;33.40;24.50
22787;DHT22;63134;52.020;4.714;2023-07-02T14:41:15;33.00;25.50
22787;DHT22;63134;52.020;4.714;2023-07-02T14:44:04;32.30;25.40
22787;DHT22;63134;52.020;4.714;2023-07-02T14:46:50;31.60;26.10
22787;DHT22;63134;52.020;4.714;2023-07-02T14:49:36;31.20;26.70
22787;DHT22;63134;52.020;4.714;2023-07-02T14:52:22;30.80;27.00
22787;DHT22;63134;52.020;4.714;2023-07-02T14:55:08;31.40;27.90
22787;DHT22;63134;52.020;4.714;2023-07-02T14:57:53;31.80;26.60
22787;DHT22;63134;52.020;4.714;2023-07-02T15:00:52;33.70;26.30
22787;DHT22;63134;52.020;4.714;2023-07-02T15:03:38;35.80;24.80
22787;DHT22;63134;52.020;4.714;2023-07-02T15:06:24;35.80;23.70
22787;DHT22;63134;52.020;4.714;2023-07-02T15:09:14;35.80;23.90
22787;DHT22;63134;52.020;4.714;2023-07-02T15:12:00;36.70;24.00
22787;DHT22;63134;52.020;4.714;2023-07-02T15:14:48;36.60;23.20
22787;DHT22;63134;52.020;4.714;2023-07-02T15:17:35;36.70;23.10
22787;DHT22;63134;52.020;4.714;2023-07-02T15:20:24;36.90;23.20
22787;DHT22;63134;52.020;4.714;2023-07-02T15:23:10;36.70;22.60
22787;DHT22;63134;52.020;4.714;2023-07-02T15:25:58;36.90;22.20
22787;DHT22;63134;52.020;4.714;2023-07-02T15:28:43;37.20;22.50
22787;DHT22;63134;52.020;4.714;2023-07-02T15:31:29;36.60;22.70
22787;DHT22;63134;52.020;4.714;2023-07-02T15:34:15;37.10;23.00
22787;DHT22;63134;52.020;4.714;2023-07-02T15:37:04;37.90;22.30
22787;DHT22;63134;52.020;4.714;2023-07-02T15:39:50;35.90;22.40
22787;DHT22;63134;52.020;4.714;2023-07-02T15:42:35;36.00;23.40
22787;DHT22;63134;52.020;4.714;2023-07-02T15:45:21;36.40;22.90
22787;DHT22;63134;52.020;4.714;2023-07-02T15:48:06;35.90;22.90
22787;DHT22;63134;52.020;4.714;2023-07-02T15:50:52;36.40;23.30
22787;DHT22;63134;52.020;4.714;2023-07-02T15:53:40;36.10;23.30
22787;DHT22;63134;52.020;4.714;2023-07-02T15:56:26;36.60;23.00
22787;DHT22;63134;52.020;4.714;2023-07-02T15:59:11;35.70;23.80
22787;DHT22;63134;52.020;4.714;2023-07-02T16:01:58;34.40;24.40
22787;DHT22;63134;52.020;4.714;2023-07-02T16:04:44;33.50;25.80
22787;DHT22;63134;52.020;4.714;2023-07-02T16:07:35;35.40;25.60
22787;DHT22;63134;52.020;4.714;2023-07-02T16:10:20;37.10;23.80
22787;DHT22;63134;52.020;4.714;2023-07-02T16:13:06;37.10;23.10
22787;DHT22;63134;52.020;4.714;2023-07-02T16:15:52;36.80;23.30
22787;DHT22;63134;52.020;4.714;2023-07-02T16:18:39;35.70;24.00
22787;DHT22;63134;52.020;4.714;2023-07-02T16:21:24;34.30;24.70
22787;DHT22;63134;52.020;4.714;2023-07-02T16:24:18;33.10;26.00
22787;DHT22;63134;52.020;4.714;2023-07-02T16:27:08;32.60;26.10
22787;DHT22;63134;52.020;4.714;2023-07-02T16:29:58;31.90;26.70
22787;DHT22;63134;52.020;4.714;2023-07-02T16:32:44;31.90;27.30
22787;DHT22;63134;52.020;4.714;2023-07-02T16:35:30;31.60;27.80
22787;DHT22;63134;52.020;4.714;2023-07-02T16:38:16;31.20;27.90
22787;DHT22;63134;52.020;4.714;2023-07-02T16:41:03;31.20;27.80
22787;DHT22;63134;52.020;4.714;2023-07-02T16:43:49;30.50;28.50
22787;DHT22;63134;52.020;4.714;2023-07-02T16:46:34;30.60;28.60
22787;DHT22;63134;52.020;4.714;2023-07-02T16:49:27;29.70;29.40
22787;DHT22;63134;52.020;4.714;2023-07-02T16:52:15;29.00;30.50
22787;DHT22;63134;52.020;4.714;2023-07-02T16:55:01;28.80;31.30
22787;DHT22;63134;52.020;4.714;2023-07-02T16:57:46;28.60;32.10
22787;DHT22;63134;52.020;4.714;2023-07-02T17:00:31;28.70;32.60
22787;DHT22;63134;52.020;4.714;2023-07-02T17:03:20;28.60;32.60
22787;DHT22;63134;52.020;4.714;2023-07-02T17:06:06;28.00;33.50
22787;DHT22;63134;52.020;4.714;2023-07-02T17:09:22;27.40;34.60
22787;DHT22;63134;52.020;4.714;2023-07-02T17:12:11;26.60;36.10
22787;DHT22;63134;52.020;4.714;2023-07-02T17:14:56;26.10;37.40
22787;DHT22;63134;52.020;4.714;2023-07-02T17:17:42;26.30;37.70
22787;DHT22;63134;52.020;4.714;2023-07-02T17:20:28;26.30;37.10
22787;DHT22;63134;52.020;4.714;2023-07-02T17:23:14;25.80;37.10
22787;DHT22;63134;52.020;4.714;2023-07-02T17:26:02;25.40;37.70
22787;DHT22;63134;52.020;4.714;2023-07-02T17:28:52;25.00;38.30
22787;DHT22;63134;52.020;4.714;2023-07-02T17:31:37;24.60;39.30
22787;DHT22;63134;52.020;4.714;2023-07-02T17:34:26;24.40;40.00
22787;DHT22;63134;52.020;4.714;2023-07-02T17:37:11;24.10;39.70